sensor_id;sensor_type;location;lat;lon;timestamp;P1;durP1;ratioP1;P2;durP2;ratioP2
65855;SDS011;52631;42.208;24.656;2024-03-08T00:01:52;31.20;;;14.80;;
65855;SDS011;52631;42.208;24.656;2024-03-08T00:04:18;27.63;;;13.50;;
65855;SDS011;52631;42.208;24.656;2024-03-08T00:06:43;27.05;;;13.48;;
65855;SDS011;52631;42.208;24.656;2024-03-08T00:09:11;28.67;;;13.93;;
65855;SDS011;52631;42.208;24.656;2024-03-08T00:11:37;24.90;;;13.10;;
65855;SDS011;52631;42.208;24.656;2024-03-08T00:14:02;26.42;;;12.90;;
65855;SDS011;52631;42.208;24.656;2024-03-08T00:16:31;24.95;;;13.00;;
65855;SDS011;52631;42.208;24.656;2024-03-08T00:18:57;25.13;;;12.63;;
65855;SDS011;52631;42.208;24.656;2024-03-08T00:21:23;26.75;;;13.27;;
65855;SDS011;52631;42.208;24.656;2024-03-08T00:23:49;24.95;;;12.90;;
65855;SDS011;52631;42.208;24.656;2024-03-08T00:26:14;24.45;;;12.30;;
65855;SDS011;52631;42.208;24.656;2024-03-08T00:28:40;24.08;;;12.65;;
65855;SDS011;52631;42.208;24.656;2024-03-08T00:31:05;26.25;;;13.05;;
65855;SDS011;52631;42.208;24.656;2024-03-08T00:33:32;23.50;;;12.73;;
65855;SDS011;52631;42.208;24.656;2024-03-08T00:35:57;28.20;;;13.32;;
65855;SDS011;52631;42.208;24.656;2024-03-08T00:38:23;25.40;;;12.07;;
65855;SDS011;52631;42.208;24.656;2024-03-08T00:40:48;26.63;;;12.65;;
65855;SDS011;52631;42.208;24.656;2024-03-08T00:43:13;29.63;;;14.00;;
65855;SDS011;52631;42.208;24.656;2024-03-08T00:45:40;25.52;;;12.55;;
65855;SDS011;52631;42.208;24.656;2024-03-08T00:48:07;25.52;;;13.75;;
65855;SDS011;52631;42.208;24.656;2024-03-08T00:53:55;26.92;;;12.73;;
65855;SDS011;52631;42.208;24.656;2024-03-08T00:56:21;27.75;;;13.85;;
65855;SDS011;52631;42.208;24.656;2024-03-08T00:58:47;26.40;;;13.25;;
65855;SDS011;52631;42.208;24.656;2024-03-08T01:01:13;30.58;;;13.23;;
65855;SDS011;52631;42.208;24.656;2024-03-08T01:03:42;24.98;;;13.05;;
65855;SDS011;52631;42.208;24.656;2024-03-08T01:06:08;27.00;;;13.38;;
65855;SDS011;52631;42.208;24.656;2024-03-08T01:08:33;29.80;;;14.30;;
65855;SDS011;52631;42.208;24.656;2024-03-08T01:10:58;29.42;;;13.88;;
65855;SDS011;52631;42.208;24.656;2024-03-08T01:13:24;27.25;;;13.65;;
65855;SDS011;52631;42.208;24.656;2024-03-08T01:15:49;43.15;;;19.65;;
65855;SDS011;52631;42.208;24.656;2024-03-08T01:18:15;47.47;;;22.40;;
65855;SDS011;52631;42.208;24.656;2024-03-08T01:20:41;34.10;;;16.25;;
65855;SDS011;52631;42.208;24.656;2024-03-08T01:23:06;31.23;;;15.10;;
65855;SDS011;52631;42.208;24.656;2024-03-08T01:25:32;27.63;;;14.38;;
65855;SDS011;52631;42.208;24.656;2024-03-08T01:27:58;29.80;;;15.38;;
65855;SDS011;52631;42.208;24.656;2024-03-08T01:30:24;25.85;;;12.82;;
65855;SDS011;52631;42.208;24.656;2024-03-08T01:32:49;26.15;;;13.65;;
65855;SDS011;52631;42.208;24.656;2024-03-08T01:35:14;28.63;;;13.82;;
65855;SDS011;52631;42.208;24.656;2024-03-08T01:37:40;26.13;;;13.35;;
65855;SDS011;52631;42.208;24.656;2024-03-08T01:40:06;28.90;;;14.98;;
65855;SDS011;52631;42.208;24.656;2024-03-08T01:42:33;26.85;;;15.05;;
65855;SDS011;52631;42.208;24.656;2024-03-08T01:45:01;30.38;;;15.30;;
65855;SDS011;52631;42.208;24.656;2024-03-08T01:47:29;27.40;;;14.82;;
65855;SDS011;52631;42.208;24.656;2024-03-08T01:49:57;30.55;;;14.80;;
65855;SDS011;52631;42.208;24.656;2024-03-08T01:52:25;30.27;;;14.40;;
65855;SDS011;52631;42.208;24.656;2024-03-08T01:54:51;28.45;;;14.82;;
65855;SDS011;52631;42.208;24.656;2024-03-08T01:57:17;26.50;;;13.68;;
65855;SDS011;52631;42.208;24.656;2024-03-08T01:59:42;26.55;;;13.18;;
65855;SDS011;52631;42.208;24.656;2024-03-08T02:02:08;27.77;;;12.90;;
65855;SDS011;52631;42.208;24.656;2024-03-08T02:04:35;28.67;;;13.57;;
65855;SDS011;52631;42.208;24.656;2024-03-08T02:07:01;25.75;;;13.15;;
65855;SDS011;52631;42.208;24.656;2024-03-08T02:09:27;30.75;;;14.68;;
65855;SDS011;52631;42.208;24.656;2024-03-08T02:11:52;28.35;;;13.93;;
65855;SDS011;52631;42.208;24.656;2024-03-08T02:14:19;28.90;;;15.15;;
65855;SDS011;52631;42.208;24.656;2024-03-08T02:16:45;29.55;;;14.63;;
65855;SDS011;52631;42.208;24.656;2024-03-08T02:19:10;27.77;;;14.75;;
65855;SDS011;52631;42.208;24.656;2024-03-08T02:21:36;25.23;;;13.98;;
65855;SDS011;52631;42.208;24.656;2024-03-08T02:24:03;23.27;;;12.73;;
65855;SDS011;52631;42.208;24.656;2024-03-08T02:26:29;26.40;;;13.75;;
65855;SDS011;52631;42.208;24.656;2024-03-08T02:28:54;30.58;;;14.48;;
65855;SDS011;52631;42.208;24.656;2024-03-08T02:31:20;28.27;;;13.93;;
65855;SDS011;52631;42.208;24.656;2024-03-08T02:33:45;31.38;;;14.70;;
65855;SDS011;52631;42.208;24.656;2024-03-08T02:36:12;26.25;;;12.80;;
65855;SDS011;52631;42.208;24.656;2024-03-08T02:38:38;29.02;;;13.45;;
65855;SDS011;52631;42.208;24.656;2024-03-08T02:41:06;29.63;;;14.43;;
65855;SDS011;52631;42.208;24.656;2024-03-08T02:43:32;30.63;;;14.90;;
65855;SDS011;52631;42.208;24.656;2024-03-08T02:45:59;27.45;;;14.38;;
65855;SDS011;52631;42.208;24.656;2024-03-08T02:48:24;28.77;;;13.73;;
65855;SDS011;52631;42.208;24.656;2024-03-08T02:50:50;31.33;;;15.27;;
65855;SDS011;52631;42.208;24.656;2024-03-08T02:53:16;28.38;;;13.57;;
65855;SDS011;52631;42.208;24.656;2024-03-08T02:55:41;27.73;;;13.70;;
65855;SDS011;52631;42.208;24.656;2024-03-08T02:58:07;26.73;;;13.63;;
65855;SDS011;52631;42.208;24.656;2024-03-08T03:00:36;26.63;;;14.75;;
65855;SDS011;52631;42.208;24.656;2024-03-08T03:03:02;25.88;;;13.95;;
65855;SDS011;52631;42.208;24.656;2024-03-08T03:05:28;25.95;;;12.48;;
65855;SDS011;52631;42.208;24.656;2024-03-08T03:07:54;29.15;;;14.02;;
65855;SDS011;52631;42.208;24.656;2024-03-08T03:10:20;30.40;;;14.60;;
65855;SDS011;52631;42.208;24.656;2024-03-08T03:12:47;29.33;;;13.38;;
65855;SDS011;52631;42.208;24.656;2024-03-08T03:15:13;32.00;;;15.18;;
65855;SDS011;52631;42.208;24.656;2024-03-08T03:17:39;30.67;;;15.20;;
65855;SDS011;52631;42.208;24.656;2024-03-08T03:20:08;29.13;;;15.50;;
65855;SDS011;52631;42.208;24.656;2024-03-08T03:22:39;34.67;;;15.98;;
65855;SDS011;52631;42.208;24.656;2024-03-08T03:25:06;32.30;;;15.77;;
65855;SDS011;52631;42.208;24.656;2024-03-08T03:27:32;30.23;;;16.10;;
65855;SDS011;52631;42.208;24.656;2024-03-08T03:29:58;35.65;;;17.35;;
65855;SDS011;52631;42.208;24.656;2024-03-08T03:32:31;35.40;;;16.95;;
65855;SDS011;52631;42.208;24.656;2024-03-08T03:34:58;30.08;;;16.63;;
65855;SDS011;52631;42.208;24.656;2024-03-08T03:37:23;35.88;;;16.90;;
65855;SDS011;52631;42.208;24.656;2024-03-08T03:39:48;32.08;;;15.75;;
65855;SDS011;52631;42.208;24.656;2024-03-08T03:42:15;36.17;;;16.55;;
65855;SDS011;52631;42.208;24.656;2024-03-08T03:44:41;32.85;;;15.43;;
65855;SDS011;52631;42.208;24.656;2024-03-08T03:47:08;33.05;;;14.23;;
65855;SDS011;52631;42.208;24.656;2024-03-08T03:49:33;29.85;;;14.02;;
65855;SDS011;52631;42.208;24.656;2024-03-08T03:51:59;27.85;;;13.93;;
65855;SDS011;52631;42.208;24.656;2024-03-08T03:54:25;31.02;;;14.90;;
65855;SDS011;52631;42.208;24.656;2024-03-08T03:56:50;30.92;;;14.02;;
65855;SDS011;52631;42.208;24.656;2024-03-08T03:59:18;32.17;;;16.25;;
65855;SDS011;52631;42.208;24.656;2024-03-08T04:01:44;32.25;;;16.90;;
65855;SDS011;52631;42.208;24.656;2024-03-08T04:04:09;34.15;;;17.30;;
65855;SDS011;52631;42.208;24.656;2024-03-08T04:06:35;39.78;;;16.35;;
65855;SDS011;52631;42.208;24.656;2024-03-08T04:09:00;37.13;;;17.00;;
65855;SDS011;52631;42.208;24.656;2024-03-08T04:11:26;39.38;;;17.63;;
65855;SDS011;52631;42.208;24.656;2024-03-08T04:13:51;41.80;;;17.58;;
65855;SDS011;52631;42.208;24.656;2024-03-08T04:16:17;43.60;;;17.63;;
65855;SDS011;52631;42.208;24.656;2024-03-08T04:18:44;37.90;;;18.23;;
65855;SDS011;52631;42.208;24.656;2024-03-08T04:21:09;56.25;;;24.65;;
65855;SDS011;52631;42.208;24.656;2024-03-08T04:23:34;71.72;;;28.70;;
65855;SDS011;52631;42.208;24.656;2024-03-08T04:26:01;46.72;;;20.75;;
65855;SDS011;52631;42.208;24.656;2024-03-08T04:28:29;47.00;;;21.00;;
65855;SDS011;52631;42.208;24.656;2024-03-08T04:30:54;62.25;;;25.70;;
65855;SDS011;52631;42.208;24.656;2024-03-08T04:33:20;78.07;;;29.45;;
65855;SDS011;52631;42.208;24.656;2024-03-08T04:35:46;77.95;;;30.67;;
65855;SDS011;52631;42.208;24.656;2024-03-08T04:38:12;45.05;;;21.55;;
65855;SDS011;52631;42.208;24.656;2024-03-08T04:40:38;48.58;;;20.33;;
65855;SDS011;52631;42.208;24.656;2024-03-08T04:43:03;48.83;;;20.02;;
65855;SDS011;52631;42.208;24.656;2024-03-08T04:45:29;42.50;;;18.73;;
65855;SDS011;52631;42.208;24.656;2024-03-08T04:47:54;45.80;;;19.15;;
65855;SDS011;52631;42.208;24.656;2024-03-08T04:50:19;43.25;;;18.08;;
65855;SDS011;52631;42.208;24.656;2024-03-08T04:52:45;42.33;;;18.80;;
65855;SDS011;52631;42.208;24.656;2024-03-08T04:55:11;42.58;;;19.00;;
65855;SDS011;52631;42.208;24.656;2024-03-08T04:57:37;40.15;;;18.70;;
65855;SDS011;52631;42.208;24.656;2024-03-08T05:00:03;36.83;;;17.90;;
65855;SDS011;52631;42.208;24.656;2024-03-08T05:02:35;38.42;;;17.73;;
65855;SDS011;52631;42.208;24.656;2024-03-08T05:05:01;40.63;;;17.50;;
65855;SDS011;52631;42.208;24.656;2024-03-08T05:07:27;39.00;;;17.45;;
65855;SDS011;52631;42.208;24.656;2024-03-08T05:09:52;37.70;;;18.30;;
65855;SDS011;52631;42.208;24.656;2024-03-08T05:12:18;39.78;;;16.75;;
65855;SDS011;52631;42.208;24.656;2024-03-08T05:14:45;41.53;;;16.75;;
65855;SDS011;52631;42.208;24.656;2024-03-08T05:17:11;37.88;;;16.60;;
65855;SDS011;52631;42.208;24.656;2024-03-08T05:19:37;37.30;;;17.30;;
65855;SDS011;52631;42.208;24.656;2024-03-08T05:22:03;40.33;;;18.13;;
65855;SDS011;52631;42.208;24.656;2024-03-08T05:24:29;37.38;;;16.60;;
65855;SDS011;52631;42.208;24.656;2024-03-08T05:26:55;39.95;;;17.90;;
65855;SDS011;52631;42.208;24.656;2024-03-08T05:29:20;35.30;;;15.50;;
65855;SDS011;52631;42.208;24.656;2024-03-08T05:31:49;41.17;;;17.67;;
65855;SDS011;52631;42.208;24.656;2024-03-08T05:36:44;39.65;;;16.63;;
65855;SDS011;52631;42.208;24.656;2024-03-08T05:39:11;35.10;;;15.80;;
65855;SDS011;52631;42.208;24.656;2024-03-08T05:41:43;38.88;;;16.70;;
65855;SDS011;52631;42.208;24.656;2024-03-08T05:44:09;38.10;;;17.10;;
65855;SDS011;52631;42.208;24.656;2024-03-08T05:46:35;37.53;;;17.23;;
65855;SDS011;52631;42.208;24.656;2024-03-08T05:49:02;34.70;;;16.08;;
65855;SDS011;52631;42.208;24.656;2024-03-08T05:51:31;39.97;;;16.63;;
65855;SDS011;52631;42.208;24.656;2024-03-08T05:53:59;37.47;;;16.80;;
65855;SDS011;52631;42.208;24.656;2024-03-08T05:56:28;31.90;;;15.88;;
65855;SDS011;52631;42.208;24.656;2024-03-08T05:58:57;40.92;;;18.15;;
65855;SDS011;52631;42.208;24.656;2024-03-08T06:01:25;38.78;;;18.25;;
65855;SDS011;52631;42.208;24.656;2024-03-08T06:03:51;42.25;;;18.50;;
65855;SDS011;52631;42.208;24.656;2024-03-08T06:06:21;38.28;;;18.50;;
65855;SDS011;52631;42.208;24.656;2024-03-08T06:08:47;38.75;;;19.00;;
65855;SDS011;52631;42.208;24.656;2024-03-08T06:11:14;39.28;;;19.08;;
65855;SDS011;52631;42.208;24.656;2024-03-08T06:13:40;42.28;;;20.00;;
65855;SDS011;52631;42.208;24.656;2024-03-08T06:16:05;39.40;;;19.05;;
65855;SDS011;52631;42.208;24.656;2024-03-08T06:18:33;43.58;;;17.80;;
65855;SDS011;52631;42.208;24.656;2024-03-08T06:20:59;36.10;;;17.70;;
65855;SDS011;52631;42.208;24.656;2024-03-08T06:23:25;39.22;;;18.10;;
65855;SDS011;52631;42.208;24.656;2024-03-08T06:25:52;39.47;;;18.75;;
65855;SDS011;52631;42.208;24.656;2024-03-08T06:28:18;39.17;;;19.48;;
65855;SDS011;52631;42.208;24.656;2024-03-08T06:30:43;37.90;;;18.30;;
65855;SDS011;52631;42.208;24.656;2024-03-08T06:33:09;41.17;;;18.00;;
65855;SDS011;52631;42.208;24.656;2024-03-08T06:35:35;40.65;;;18.98;;
65855;SDS011;52631;42.208;24.656;2024-03-08T06:38:03;48.55;;;20.83;;
65855;SDS011;52631;42.208;24.656;2024-03-08T06:40:29;42.20;;;20.13;;
65855;SDS011;52631;42.208;24.656;2024-03-08T06:42:54;44.45;;;20.17;;
65855;SDS011;52631;42.208;24.656;2024-03-08T06:45:20;41.92;;;20.50;;
65855;SDS011;52631;42.208;24.656;2024-03-08T06:47:46;43.28;;;20.10;;
65855;SDS011;52631;42.208;24.656;2024-03-08T06:50:12;41.30;;;18.67;;
65855;SDS011;52631;42.208;24.656;2024-03-08T06:52:40;37.00;;;18.92;;
65855;SDS011;52631;42.208;24.656;2024-03-08T06:55:07;49.55;;;20.35;;
65855;SDS011;52631;42.208;24.656;2024-03-08T06:57:33;47.55;;;20.90;;
65855;SDS011;52631;42.208;24.656;2024-03-08T06:59:58;48.13;;;20.17;;
65855;SDS011;52631;42.208;24.656;2024-03-08T07:02:24;44.05;;;19.42;;
65855;SDS011;52631;42.208;24.656;2024-03-08T07:04:50;38.92;;;20.00;;
65855;SDS011;52631;42.208;24.656;2024-03-08T07:07:16;40.13;;;19.15;;
65855;SDS011;52631;42.208;24.656;2024-03-08T07:09:45;42.97;;;18.92;;
65855;SDS011;52631;42.208;24.656;2024-03-08T07:12:11;43.25;;;19.58;;
65855;SDS011;52631;42.208;24.656;2024-03-08T07:14:38;39.17;;;19.05;;
65855;SDS011;52631;42.208;24.656;2024-03-08T07:17:09;39.35;;;18.58;;
65855;SDS011;52631;42.208;24.656;2024-03-08T07:19:35;40.28;;;18.77;;
65855;SDS011;52631;42.208;24.656;2024-03-08T07:22:00;40.00;;;18.33;;
65855;SDS011;52631;42.208;24.656;2024-03-08T07:24:28;46.15;;;19.52;;
65855;SDS011;52631;42.208;24.656;2024-03-08T07:27:17;42.35;;;18.40;;
65855;SDS011;52631;42.208;24.656;2024-03-08T07:29:43;33.92;;;17.30;;
65855;SDS011;52631;42.208;24.656;2024-03-08T07:32:08;35.15;;;17.85;;
65855;SDS011;52631;42.208;24.656;2024-03-08T07:34:43;41.10;;;19.05;;
65855;SDS011;52631;42.208;24.656;2024-03-08T07:37:08;42.30;;;19.05;;
65855;SDS011;52631;42.208;24.656;2024-03-08T07:39:37;41.30;;;17.48;;
65855;SDS011;52631;42.208;24.656;2024-03-08T07:42:04;37.38;;;17.70;;
65855;SDS011;52631;42.208;24.656;2024-03-08T07:44:29;37.92;;;18.05;;
65855;SDS011;52631;42.208;24.656;2024-03-08T07:46:56;38.50;;;18.05;;
65855;SDS011;52631;42.208;24.656;2024-03-08T07:49:22;42.67;;;19.63;;
65855;SDS011;52631;42.208;24.656;2024-03-08T07:51:47;42.38;;;19.95;;
65855;SDS011;52631;42.208;24.656;2024-03-08T07:54:14;40.97;;;18.13;;
65855;SDS011;52631;42.208;24.656;2024-03-08T07:56:39;40.58;;;19.60;;
65855;SDS011;52631;42.208;24.656;2024-03-08T07:59:06;38.63;;;18.70;;
65855;SDS011;52631;42.208;24.656;2024-03-08T08:01:32;37.22;;;18.98;;
65855;SDS011;52631;42.208;24.656;2024-03-08T08:04:01;40.42;;;17.75;;
65855;SDS011;52631;42.208;24.656;2024-03-08T08:06:27;41.70;;;18.25;;
65855;SDS011;52631;42.208;24.656;2024-03-08T08:08:53;41.28;;;18.75;;
65855;SDS011;52631;42.208;24.656;2024-03-08T08:11:19;58.03;;;25.50;;
65855;SDS011;52631;42.208;24.656;2024-03-08T08:13:45;38.75;;;18.63;;
65855;SDS011;52631;42.208;24.656;2024-03-08T08:16:11;39.33;;;19.10;;
65855;SDS011;52631;42.208;24.656;2024-03-08T08:18:37;36.45;;;18.25;;
65855;SDS011;52631;42.208;24.656;2024-03-08T08:21:04;38.28;;;17.10;;
65855;SDS011;52631;42.208;24.656;2024-03-08T08:23:31;36.40;;;18.25;;
65855;SDS011;52631;42.208;24.656;2024-03-08T08:25:58;36.47;;;17.77;;
65855;SDS011;52631;42.208;24.656;2024-03-08T08:28:24;39.72;;;20.40;;
65855;SDS011;52631;42.208;24.656;2024-03-08T08:30:49;40.33;;;20.35;;
65855;SDS011;52631;42.208;24.656;2024-03-08T08:33:15;35.30;;;17.55;;
65855;SDS011;52631;42.208;24.656;2024-03-08T08:35:41;28.50;;;16.25;;
65855;SDS011;52631;42.208;24.656;2024-03-08T08:38:07;33.80;;;16.83;;
65855;SDS011;52631;42.208;24.656;2024-03-08T08:40:36;30.77;;;18.20;;
65855;SDS011;52631;42.208;24.656;2024-03-08T08:43:02;35.63;;;17.25;;
65855;SDS011;52631;42.208;24.656;2024-03-08T08:45:29;28.17;;;14.75;;
65855;SDS011;52631;42.208;24.656;2024-03-08T08:47:55;48.80;;;22.00;;
65855;SDS011;52631;42.208;24.656;2024-03-08T08:50:22;32.42;;;16.02;;
65855;SDS011;52631;42.208;24.656;2024-03-08T08:52:51;33.90;;;17.77;;
65855;SDS011;52631;42.208;24.656;2024-03-08T08:55:17;32.90;;;17.45;;
65855;SDS011;52631;42.208;24.656;2024-03-08T08:57:46;27.50;;;13.65;;
65855;SDS011;52631;42.208;24.656;2024-03-08T09:00:12;28.80;;;15.32;;
65855;SDS011;52631;42.208;24.656;2024-03-08T09:02:40;28.10;;;14.73;;
65855;SDS011;52631;42.208;24.656;2024-03-08T09:05:06;33.10;;;16.10;;
65855;SDS011;52631;42.208;24.656;2024-03-08T09:07:35;28.10;;;15.25;;
65855;SDS011;52631;42.208;24.656;2024-03-08T09:10:00;25.73;;;14.15;;
65855;SDS011;52631;42.208;24.656;2024-03-08T09:12:26;31.40;;;14.80;;
65855;SDS011;52631;42.208;24.656;2024-03-08T09:14:52;28.27;;;14.10;;
65855;SDS011;52631;42.208;24.656;2024-03-08T09:17:17;32.95;;;15.88;;
65855;SDS011;52631;42.208;24.656;2024-03-08T09:19:46;33.40;;;15.57;;
65855;SDS011;52631;42.208;24.656;2024-03-08T09:22:12;31.20;;;14.70;;
65855;SDS011;52631;42.208;24.656;2024-03-08T09:24:38;31.42;;;15.63;;
65855;SDS011;52631;42.208;24.656;2024-03-08T09:27:03;25.15;;;14.45;;
65855;SDS011;52631;42.208;24.656;2024-03-08T09:29:29;29.38;;;15.25;;
65855;SDS011;52631;42.208;24.656;2024-03-08T09:31:54;29.20;;;14.43;;
65855;SDS011;52631;42.208;24.656;2024-03-08T09:34:20;32.80;;;15.98;;
65855;SDS011;52631;42.208;24.656;2024-03-08T09:36:46;27.73;;;14.55;;
65855;SDS011;52631;42.208;24.656;2024-03-08T09:39:11;33.08;;;15.50;;
65855;SDS011;52631;42.208;24.656;2024-03-08T09:41:44;28.23;;;13.75;;
65855;SDS011;52631;42.208;24.656;2024-03-08T09:44:13;29.70;;;14.52;;
65855;SDS011;52631;42.208;24.656;2024-03-08T09:46:39;33.78;;;16.15;;
65855;SDS011;52631;42.208;24.656;2024-03-08T09:49:05;30.33;;;16.38;;
65855;SDS011;52631;42.208;24.656;2024-03-08T09:51:31;27.23;;;14.30;;
65855;SDS011;52631;42.208;24.656;2024-03-08T09:54:00;29.55;;;14.63;;
65855;SDS011;52631;42.208;24.656;2024-03-08T09:56:26;31.02;;;16.10;;
65855;SDS011;52631;42.208;24.656;2024-03-08T09:58:52;31.48;;;14.77;;
65855;SDS011;52631;42.208;24.656;2024-03-08T10:01:36;34.53;;;16.42;;
65855;SDS011;52631;42.208;24.656;2024-03-08T10:04:04;32.60;;;14.90;;
65855;SDS011;52631;42.208;24.656;2024-03-08T10:06:29;28.90;;;14.30;;
65855;SDS011;52631;42.208;24.656;2024-03-08T10:08:56;24.73;;;13.27;;
65855;SDS011;52631;42.208;24.656;2024-03-08T10:11:21;26.75;;;13.98;;
65855;SDS011;52631;42.208;24.656;2024-03-08T10:13:48;32.53;;;15.82;;
65855;SDS011;52631;42.208;24.656;2024-03-08T10:16:15;27.00;;;13.70;;
65855;SDS011;52631;42.208;24.656;2024-03-08T10:18:42;31.40;;;14.18;;
65855;SDS011;52631;42.208;24.656;2024-03-08T10:21:08;35.05;;;16.50;;
65855;SDS011;52631;42.208;24.656;2024-03-08T10:23:35;27.55;;;14.43;;
65855;SDS011;52631;42.208;24.656;2024-03-08T10:26:11;27.10;;;13.75;;
65855;SDS011;52631;42.208;24.656;2024-03-08T10:28:45;37.53;;;16.88;;
65855;SDS011;52631;42.208;24.656;2024-03-08T10:31:17;38.45;;;17.63;;
65855;SDS011;52631;42.208;24.656;2024-03-08T10:33:44;29.95;;;15.88;;
65855;SDS011;52631;42.208;24.656;2024-03-08T10:36:10;21.42;;;12.38;;
65855;SDS011;52631;42.208;24.656;2024-03-08T10:38:38;25.88;;;13.82;;
65855;SDS011;52631;42.208;24.656;2024-03-08T10:41:05;21.70;;;11.82;;
65855;SDS011;52631;42.208;24.656;2024-03-08T10:43:32;23.50;;;12.73;;
65855;SDS011;52631;42.208;24.656;2024-03-08T10:48:43;31.42;;;14.32;;
65855;SDS011;52631;42.208;24.656;2024-03-08T10:51:09;19.98;;;10.80;;
65855;SDS011;52631;42.208;24.656;2024-03-08T10:53:36;27.02;;;15.75;;
65855;SDS011;52631;42.208;24.656;2024-03-08T10:56:06;32.88;;;16.75;;
65855;SDS011;52631;42.208;24.656;2024-03-08T10:58:32;29.67;;;14.32;;
65855;SDS011;52631;42.208;24.656;2024-03-08T11:00:59;26.30;;;12.57;;
65855;SDS011;52631;42.208;24.656;2024-03-08T11:08:33;16.05;;;8.60;;
65855;SDS011;52631;42.208;24.656;2024-03-08T11:10:58;16.67;;;10.55;;
65855;SDS011;52631;42.208;24.656;2024-03-08T11:13:40;17.88;;;9.05;;
65855;SDS011;52631;42.208;24.656;2024-03-08T11:16:09;18.88;;;10.48;;
65855;SDS011;52631;42.208;24.656;2024-03-08T11:18:36;15.93;;;9.05;;
65855;SDS011;52631;42.208;24.656;2024-03-08T11:21:08;15.05;;;8.77;;
65855;SDS011;52631;42.208;24.656;2024-03-08T11:23:37;15.35;;;9.25;;
65855;SDS011;52631;42.208;24.656;2024-03-08T11:26:16;17.63;;;9.60;;
65855;SDS011;52631;42.208;24.656;2024-03-08T11:28:43;12.73;;;7.40;;
65855;SDS011;52631;42.208;24.656;2024-03-08T11:33:34;20.23;;;8.68;;
65855;SDS011;52631;42.208;24.656;2024-03-08T11:36:10;17.02;;;8.30;;
65855;SDS011;52631;42.208;24.656;2024-03-08T11:38:40;15.18;;;8.55;;
65855;SDS011;52631;42.208;24.656;2024-03-08T11:41:06;13.80;;;8.18;;
65855;SDS011;52631;42.208;24.656;2024-03-08T11:43:32;18.67;;;8.88;;
65855;SDS011;52631;42.208;24.656;2024-03-08T11:46:07;13.93;;;7.82;;
65855;SDS011;52631;42.208;24.656;2024-03-08T11:48:33;12.60;;;6.60;;
65855;SDS011;52631;42.208;24.656;2024-03-08T11:51:01;13.05;;;7.60;;
65855;SDS011;52631;42.208;24.656;2024-03-08T11:53:28;20.08;;;9.82;;
65855;SDS011;52631;42.208;24.656;2024-03-08T11:55:53;19.65;;;10.60;;
65855;SDS011;52631;42.208;24.656;2024-03-08T11:58:19;18.88;;;9.63;;
65855;SDS011;52631;42.208;24.656;2024-03-08T12:00:44;19.10;;;10.60;;
65855;SDS011;52631;42.208;24.656;2024-03-08T12:03:11;16.40;;;9.55;;
65855;SDS011;52631;42.208;24.656;2024-03-08T12:05:39;18.52;;;9.55;;
65855;SDS011;52631;42.208;24.656;2024-03-08T12:08:04;23.02;;;10.60;;
65855;SDS011;52631;42.208;24.656;2024-03-08T12:10:32;22.17;;;10.50;;
65855;SDS011;52631;42.208;24.656;2024-03-08T12:12:58;18.65;;;10.13;;
65855;SDS011;52631;42.208;24.656;2024-03-08T12:15:28;18.48;;;10.68;;
65855;SDS011;52631;42.208;24.656;2024-03-08T12:17:54;17.92;;;9.98;;
65855;SDS011;52631;42.208;24.656;2024-03-08T12:22:56;17.63;;;9.43;;
65855;SDS011;52631;42.208;24.656;2024-03-08T12:25:22;19.92;;;10.10;;
65855;SDS011;52631;42.208;24.656;2024-03-08T12:27:51;18.15;;;9.73;;
65855;SDS011;52631;42.208;24.656;2024-03-08T12:30:22;15.88;;;9.73;;
65855;SDS011;52631;42.208;24.656;2024-03-08T12:32:48;16.73;;;9.30;;
65855;SDS011;52631;42.208;24.656;2024-03-08T12:35:14;15.82;;;8.95;;
65855;SDS011;52631;42.208;24.656;2024-03-08T12:37:39;17.27;;;9.68;;
65855;SDS011;52631;42.208;24.656;2024-03-08T12:40:09;15.95;;;9.02;;
65855;SDS011;52631;42.208;24.656;2024-03-08T12:42:35;14.98;;;7.97;;
65855;SDS011;52631;42.208;24.656;2024-03-08T12:45:00;15.30;;;8.48;;
65855;SDS011;52631;42.208;24.656;2024-03-08T12:47:28;16.65;;;8.63;;
65855;SDS011;52631;42.208;24.656;2024-03-08T12:49:54;16.05;;;9.32;;
65855;SDS011;52631;42.208;24.656;2024-03-08T12:52:19;13.70;;;8.43;;
65855;SDS011;52631;42.208;24.656;2024-03-08T12:54:46;14.07;;;7.97;;
65855;SDS011;52631;42.208;24.656;2024-03-08T12:57:12;18.15;;;9.77;;
65855;SDS011;52631;42.208;24.656;2024-03-08T12:59:38;15.93;;;9.40;;
65855;SDS011;52631;42.208;24.656;2024-03-08T13:02:04;18.98;;;10.15;;
65855;SDS011;52631;42.208;24.656;2024-03-08T13:04:31;16.00;;;9.35;;
65855;SDS011;52631;42.208;24.656;2024-03-08T13:06:57;14.70;;;9.05;;
65855;SDS011;52631;42.208;24.656;2024-03-08T13:09:23;14.82;;;8.38;;
65855;SDS011;52631;42.208;24.656;2024-03-08T13:11:52;13.13;;;8.18;;
65855;SDS011;52631;42.208;24.656;2024-03-08T13:14:20;15.18;;;8.75;;
65855;SDS011;52631;42.208;24.656;2024-03-08T13:16:46;13.77;;;7.72;;
65855;SDS011;52631;42.208;24.656;2024-03-08T13:19:13;12.38;;;8.32;;
65855;SDS011;52631;42.208;24.656;2024-03-08T13:21:38;13.88;;;8.10;;
65855;SDS011;52631;42.208;24.656;2024-03-08T13:24:04;13.20;;;8.35;;
65855;SDS011;52631;42.208;24.656;2024-03-08T13:26:30;14.90;;;8.45;;
65855;SDS011;52631;42.208;24.656;2024-03-08T13:28:58;12.73;;;8.77;;
65855;SDS011;52631;42.208;24.656;2024-03-08T13:31:25;12.50;;;7.22;;
65855;SDS011;52631;42.208;24.656;2024-03-08T13:33:51;11.90;;;7.57;;
65855;SDS011;52631;42.208;24.656;2024-03-08T13:36:22;12.25;;;7.28;;
65855;SDS011;52631;42.208;24.656;2024-03-08T13:38:49;11.73;;;7.05;;
65855;SDS011;52631;42.208;24.656;2024-03-08T13:41:16;12.88;;;7.05;;
65855;SDS011;52631;42.208;24.656;2024-03-08T13:43:45;15.05;;;7.75;;
65855;SDS011;52631;42.208;24.656;2024-03-08T13:46:14;12.25;;;7.53;;
65855;SDS011;52631;42.208;24.656;2024-03-08T13:48:41;12.02;;;6.35;;
65855;SDS011;52631;42.208;24.656;2024-03-08T13:51:07;20.98;;;9.82;;
65855;SDS011;52631;42.208;24.656;2024-03-08T13:53:35;12.48;;;7.15;;
65855;SDS011;52631;42.208;24.656;2024-03-08T13:56:03;11.68;;;7.35;;
65855;SDS011;52631;42.208;24.656;2024-03-08T13:58:30;12.73;;;7.40;;
65855;SDS011;52631;42.208;24.656;2024-03-08T14:00:56;13.55;;;6.40;;
65855;SDS011;52631;42.208;24.656;2024-03-08T14:03:21;11.25;;;6.88;;
65855;SDS011;52631;42.208;24.656;2024-03-08T14:05:48;12.15;;;7.22;;
65855;SDS011;52631;42.208;24.656;2024-03-08T14:08:14;10.20;;;6.30;;
65855;SDS011;52631;42.208;24.656;2024-03-08T14:10:41;11.43;;;6.82;;
65855;SDS011;52631;42.208;24.656;2024-03-08T14:13:07;13.63;;;7.43;;
65855;SDS011;52631;42.208;24.656;2024-03-08T14:15:33;15.60;;;9.05;;
65855;SDS011;52631;42.208;24.656;2024-03-08T14:17:59;13.10;;;7.38;;
65855;SDS011;52631;42.208;24.656;2024-03-08T14:20:26;13.68;;;6.90;;
65855;SDS011;52631;42.208;24.656;2024-03-08T14:22:52;12.60;;;7.28;;
65855;SDS011;52631;42.208;24.656;2024-03-08T14:25:18;10.45;;;6.75;;
65855;SDS011;52631;42.208;24.656;2024-03-08T14:27:44;13.80;;;7.10;;